vendredi 31 janvier 2014

ALERTE SPOTTING 31/01/14

IL9 CU-T1251 Cubana
   CU440/CU441  08h55/11h30

AR8 Malmo Aviation

  TF852/TF853  10h50/11h45

330MRTT EC-340 Royal Saudi Air Force
   dpt 13h10

77W f-GZNB Air France
   dpt AF373Y 17h00

DF5 F-HDPB
   arv 18h20/21h30

320 F-HDMF Air Corsica (cyclistes)
   XK4501/XK753   08h30/09h25
   XK752/XK4516   13h55/14h45
  XK4517/XK4514   20h00/21h05

 Manque les prévisions/immats Air Europa / Flybe / certains Air Algérie
*** Heures en Local Time / prévisions soumises
 à modifications de dernières minutes ***

le TAF de la journée:  *** brouillard ce matin ***



METAR: LFPO 310400Z 00000KT 0150 R02/0550U R26/0375N R08/0400N
R24/0375N R06/0400N FG VV/// 01/01 Q1007 NOSIG=
 
TAF LONG: AMD LFPO 310325Z 3103/0106 VRB03KT 4000 BR NSC TEMPO 3103/3108
0100 FG VV/// BECMG 3109/3111 17007KT BKN010 BECMG 3112/3114 SCT030
TEMPO 3120/0106 4000 -RA BKN010 BECMG 3120/3122 18015G25KT TEMPO
0102/0106 18018G32KT=


Les logs des jours précédents :
 http://www.airkalo.com/ORLYAVIATION/Logdumois.html